Terminal Aerodrome Forecast
Issued by NWS Blacksburg, VA

Home | Current Version | Previous Version | Text Only | Print | Product List | Glossary On
Versions: 1 2 3 4 5 6 7 8 9 10 11 12 13 14 15 16 17 18 19 20 21 22 23 24 25 26 27 28
000
FTUS41 KRNK 041120
TAFBLF
TAF
KBLF 041120Z 0412/0512 25003KT P6SM SCT120
      TEMPO 0412/0413 4SM BR
     FM041330 32004KT P6SM SCT025 BKN050
     FM041700 02003KT P6SM VCTS BKN050CB
     FM042300 12003KT P6SM VCSH SCT040 BKN080
     FM050600 11004KT P6SM SCT015 OVC040=

USA.gov is the U.S. government's official web portal to all federal, state and local government web resources and services.